Time;durP1;ratioP1;P1;durP2;ratioP2;P2;SDS_P1;SDS_P2;PMS_P1;PMS_P2;Temp;Humidity;BMP_temperature;BMP_pressure;BME280_temperature;BME280_humidity;BME280_pressure;Samples;Min_cycle;Max_cycle;Signal;HPM_P1;HPM_P2
2023/08/03 05:21:25;;;;;;;2.50;2.10;;;;;;;20.77;60.26;98006.35;109724;1238;97979;-90
2023/08/03 05:23:54;;;;;;;3.90;2.20;;;;;;;20.82;60.44;98006.86;109638;1233;107621;-89
2023/08/03 05:26:58;;;;;;;6.00;2.50;;;;;;;20.88;60.42;98015.07;109514;1233;97865;-91
2023/08/03 05:29:28;;;;;;;9.00;2.80;;;;;;;20.94;60.36;98017.25;109961;1235;97875;-90
2023/08/03 05:32:26;;;;;;;5.50;2.50;;;;;;;20.96;60.35;98015.46;109885;1233;110886;-89
2023/08/03 05:34:55;;;;;;;4.60;2.50;;;;;;;20.98;60.31;98015.43;109875;1233;99229;-91
2023/08/03 05:37:44;;;;;;;7.70;2.60;;;;;;;21.01;60.58;98016.14;109706;1233;107028;-91
2023/08/03 05:40:14;;;;;;;5.90;2.10;;;;;;;21.03;60.31;98013.98;109707;1237;98098;-91
2023/08/03 05:43:31;;;;;;;9.40;2.30;;;;;;;21.06;60.51;98023.21;109658;1233;97919;-90
2023/08/03 05:46:38;;;;;;;7.10;2.90;;;;;;;21.07;60.32;98016.77;109712;1238;111234;-90
2023/08/03 05:49:09;;;;;;;7.00;2.70;;;;;;;21.08;60.36;98020.59;109597;1237;97822;-91
2023/08/03 05:51:40;;;;;;;4.40;2.40;;;;;;;21.10;60.35;98027.47;109707;1237;107952;-91
2023/08/03 05:54:45;;;;;;;5.10;2.00;;;;;;;21.17;60.34;98030.02;109420;1233;98767;-92
2023/08/03 05:57:20;;;;;;;4.40;2.50;;;;;;;21.29;60.52;98031.73;109627;1233;98033;-91
2023/08/03 06:00:24;;;;;;;3.60;2.30;;;;;;;21.42;60.47;98027.92;109564;1237;112747;-91
2023/08/03 06:03:01;;;;;;;6.40;2.50;;;;;;;21.59;60.63;98031.59;109673;1238;98037;-91
2023/08/03 06:05:50;;;;;;;5.60;2.70;;;;;;;21.71;60.53;98040.85;109491;1234;107564;-91
2023/08/03 09:16:37;;;;;;;10.50;2.80;;;;;;;25.28;59.93;98095.03;110839;1234;98041;-91
2023/08/03 09:19:08;;;;;;;7.40;3.10;;;;;;;25.41;59.98;98096.59;108743;1237;112146;-92
2023/08/03 09:21:35;;;;;;;4.60;2.70;;;;;;;25.49;59.84;98092.67;108749;1234;98050;-91
2023/08/03 09:24:18;;;;;;;4.60;2.80;;;;;;;25.53;59.62;98089.51;108741;1239;106611;-90
2023/08/03 09:27:15;;;;;;;10.30;3.40;;;;;;;25.53;59.61;98084.37;108653;1238;99175;-90
2023/08/03 09:30:04;;;;;;;8.80;3.50;;;;;;;25.52;59.59;98085.13;108787;1237;97979;-91
2023/08/03 09:32:44;;;;;;;8.20;3.70;;;;;;;25.53;59.75;98081.55;108592;1238;111120;-91
2023/08/03 09:35:23;;;;;;;6.70;3.30;;;;;;;25.58;59.71;98091.80;108853;1237;99121;-89
2023/08/03 09:37:55;;;;;;;7.70;3.40;;;;;;;25.64;59.84;98094.30;108633;1239;106678;-90
2023/08/03 09:40:23;;;;;;;8.00;3.30;;;;;;;25.69;59.52;98094.80;108686;1237;98035;-91
2023/08/03 09:42:54;;;;;;;8.00;3.20;;;;;;;25.73;59.69;98091.55;108580;1237;97954;-91
2023/08/03 09:45:24;;;;;;;6.80;3.10;;;;;;;25.76;59.64;98088.92;108592;1238;110676;-91
2023/08/03 09:47:55;;;;;;;6.40;3.30;;;;;;;25.74;59.75;98090.20;108491;1247;98012;-90
2023/08/03 09:50:25;;;;;;;5.40;3.10;;;;;;;25.68;59.50;98087.65;108652;1238;107622;-90
2023/08/03 09:52:59;;;;;;;5.00;3.00;;;;;;;25.56;59.32;98085.45;108420;1233;97972;-91
2023/08/03 09:55:36;;;;;;;4.60;3.10;;;;;;;25.39;59.48;98084.55;108652;1237;97837;-91
2023/08/03 09:58:08;;;;;;;6.60;3.20;;;;;;;25.23;59.21;98082.70;108386;1241;111335;-91
2023/08/03 10:00:37;;;;;;;8.50;3.50;;;;;;;25.06;59.40;98084.27;108506;1235;98831;-90
2023/08/03 10:03:09;;;;;;;8.40;3.30;;;;;;;24.92;59.28;98094.27;108715;1239;107551;-91
2023/08/03 10:05:44;;;;;;;;;;;;;;;24.76;59.39;98096.30;108713;1234;98059;-90
2023/08/03 10:09:13;;;;;;;;;;;;;;;;;;;;;
2023/08/03 10:11:59;;;;;;;15.50;5.30;;;;;;;24.36;59.44;98111.16;108618;1238;110746;-91
2023/08/03 10:14:51;;;;;;;11.50;3.60;;;;;;;24.21;59.41;98118.41;108567;1238;97835;-93
2023/08/03 10:17:20;;;;;;;9.90;4.10;;;;;;;24.07;59.44;98118.74;108620;1245;107402;-93
2023/08/03 10:19:48;;;;;;;9.00;3.60;;;;;;;23.96;59.59;98125.98;108539;1238;97842;-91
2023/08/03 10:22:16;;;;;;;6.90;3.30;;;;;;;23.85;59.56;98137.29;108606;1237;97896;-90
2023/08/03 10:25:22;;;;;;;6.60;3.60;;;;;;;23.72;59.80;98143.81;108532;1233;110861;-90
2023/08/03 10:28:19;;;;;;;10.90;3.70;;;;;;;23.53;59.74;98141.11;108484;1236;97855;-90
2023/08/03 10:31:15;;;;;;;9.40;3.80;;;;;;;23.34;60.12;98141.17;108578;1237;107068;-89
2023/08/03 10:33:46;;;;;;;7.80;3.80;;;;;;;23.21;59.90;98146.40;108478;1233;97922;-89
2023/08/03 10:36:31;;;;;;;6.20;3.30;;;;;;;23.14;60.02;98142.45;108501;1237;98050;-88
2023/08/03 10:39:07;;;;;;;6.20;3.30;;;;;;;23.09;60.28;98135.59;108436;1240;110122;-91
2023/08/03 10:41:46;;;;;;;9.20;3.20;;;;;;;23.06;60.13;98129.60;108586;1238;97851;-91
2023/08/03 10:44:13;;;;;;;11.00;3.50;;;;;;;23.02;60.30;98135.00;108456;1241;107633;-90
2023/08/03 10:46:50;;;;;;;7.70;3.30;;;;;;;22.97;60.24;98144.27;108750;1234;97883;-89
2023/08/03 10:49:18;;;;;;;8.70;3.30;;;;;;;22.89;60.37;98154.98;108575;1237;98465;-91
2023/08/03 10:52:25;;;;;;;5.90;3.40;;;;;;;22.81;60.71;98181.12;108715;1237;97842;-90
2023/08/03 10:54:52;;;;;;;15.40;4.50;;;;;;;22.66;60.72;98202.14;109111;1237;97947;-90
2023/08/03 10:57:28;;;;;;;9.30;3.90;;;;;;;22.59;60.88;98221.70;109119;1241;106239;-92
2023/08/03 11:00:19;;;;;;;9.90;4.00;;;;;;;22.46;61.14;98218.90;108619;1241;99249;-91
2023/08/03 11:02:49;;;;;;;13.50;4.60;;;;;;;22.32;61.23;98220.98;108814;1233;97794;-88
2023/08/03 11:05:26;;;;;;;10.80;4.70;;;;;;;22.16;61.30;98233.73;108759;1238;109764;-91
2023/08/03 11:07:55;;;;;;;10.20;4.70;;;;;;;22.05;61.40;98243.09;109004;1233;97951;-90
2023/08/03 11:10:23;;;;;;;9.50;4.50;;;;;;;21.96;61.52;98239.42;108865;1235;106959;-91
2023/08/03 11:12:54;;;;;;;10.60;4.70;;;;;;;21.85;61.68;98250.43;109014;1236;98037;-88
2023/08/03 11:15:26;;;;;;;13.70;4.40;;;;;;;21.75;61.84;98254.86;109592;1237;97959;-92
2023/08/03 11:17:54;;;;;;;13.20;4.30;;;;;;;21.64;62.20;98249.23;109616;1233;111095;-91
2023/08/03 11:20:21;;;;;;;11.50;4.40;;;;;;;21.52;62.03;98251.55;109314;1238;97837;-91
2023/08/03 11:22:54;;;;;;;9.40;4.60;;;;;;;21.40;62.01;98259.41;109131;1233;97951;-91
2023/08/03 11:25:22;;;;;;;12.50;5.10;;;;;;;21.33;62.57;98268.29;108727;1235;97947;-90
2023/08/03 11:27:53;;;;;;;14.00;5.30;;;;;;;21.20;62.71;98272.30;108980;1233;97996;-91
2023/08/03 11:30:21;;;;;;;11.10;4.40;;;;;;;21.08;62.86;98283.89;108770;1235;109779;-91
2023/08/03 11:32:47;;;;;;;11.30;4.60;;;;;;;20.98;62.61;98299.63;108500;1238;99132;-90
2023/08/03 11:35:17;;;;;;;10.30;4.40;;;;;;;20.87;62.79;98307.62;108514;1241;97982;-91
2023/08/03 11:37:44;;;;;;;10.40;3.90;;;;;;;20.78;63.15;98316.72;108588;1233;97909;-90
2023/08/03 11:40:14;;;;;;;9.40;4.00;;;;;;;20.60;63.16;98328.46;108485;1233;97921;-90
2023/08/03 11:42:44;;;;;;;9.20;3.40;;;;;;;20.41;64.04;98341.88;108695;1235;110807;-91
2023/08/03 11:45:12;;;;;;;11.90;4.20;;;;;;;20.25;63.50;98333.83;108700;1237;99204;-91
2023/08/03 11:47:56;;;;;;;;;;;;;;;;;;;;;
2023/08/03 11:51:01;;;;;;;8.30;3.60;;;;;;;20.05;63.96;98336.16;108772;1238;98046;-90
2023/08/03 11:53:33;;;;;;;9.50;3.70;;;;;;;20.02;64.01;98344.92;108691;1236;98680;-91
2023/08/03 11:56:04;;;;;;;9.40;3.80;;;;;;;19.97;64.30;98338.52;108676;1247;111233;-91
2023/08/03 11:58:31;;;;;;;7.90;3.40;;;;;;;19.91;64.00;98340.70;108735;1235;99108;-90
2023/08/03 12:01:03;;;;;;;6.10;3.20;;;;;;;19.85;64.21;98342.42;108639;1239;97868;-90
2023/08/03 12:03:37;;;;;;;6.60;3.00;;;;;;;19.75;64.35;98347.36;108631;1235;97982;-91
2023/08/03 12:06:10;;;;;;;6.10;3.00;;;;;;;19.62;64.69;98353.09;108687;1233;97905;-91
2023/08/03 12:08:55;;;;;;;4.90;2.40;;;;;;;19.49;64.51;98362.98;108722;1235;111143;-91
2023/08/03 12:11:22;;;;;;;4.30;2.50;;;;;;;19.39;64.47;98367.56;108820;1237;97916;-90
2023/08/03 12:13:52;;;;;;;5.30;2.90;;;;;;;19.32;64.85;98364.27;108931;1238;107575;-92
2023/08/03 12:16:18;;;;;;;5.20;2.80;;;;;;;19.26;64.60;98360.52;109264;1235;97929;-89
2023/08/03 12:18:48;;;;;;;7.90;3.00;;;;;;;19.26;64.67;98356.98;109579;1233;97870;-90
2023/08/03 12:21:18;;;;;;;7.60;3.00;;;;;;;19.25;64.63;98358.15;109332;1233;110170;-90
2023/08/03 12:23:44;;;;;;;6.40;3.00;;;;;;;19.23;64.81;98353.19;109395;1233;97831;-92
2023/08/03 12:26:13;;;;;;;5.50;2.50;;;;;;;19.21;65.00;98360.22;109371;1237;106882;-91
2023/08/03 12:28:40;;;;;;;6.90;3.00;;;;;;;19.17;65.37;98361.56;109359;1237;97858;-91
2023/08/03 12:31:13;;;;;;;6.60;3.00;;;;;;;19.12;65.18;98359.30;109388;1238;99064;-91
2023/08/03 12:33:43;;;;;;;10.00;3.10;;;;;;;19.10;65.07;98368.09;109502;1236;111117;-90
2023/08/03 12:36:10;;;;;;;8.40;3.30;;;;;;;19.10;65.30;98376.63;109485;1237;97951;-90
2023/08/03 12:38:37;;;;;;;7.40;3.10;;;;;;;19.09;65.37;98381.46;109325;1237;97929;-90
2023/08/03 12:41:04;;;;;;;4.70;3.00;;;;;;;19.05;65.42;98387.34;109228;1238;98033;-90
2023/08/03 12:43:32;;;;;;;10.20;4.00;;;;;;;19.02;65.50;98390.61;109466;1233;98178;-90
2023/08/03 12:46:02;;;;;;;12.50;5.00;;;;;;;19.04;65.54;98387.58;109128;1235;111140;-90
2023/08/03 12:48:34;;;;;;;6.80;3.40;;;;;;;19.07;65.69;98395.89;109464;1237;98679;-91
2023/08/03 12:51:01;;;;;;;6.50;3.00;;;;;;;19.08;65.62;98399.10;109240;1239;107382;-91
2023/08/03 12:53:29;;;;;;;6.80;3.10;;;;;;;19.09;65.79;98400.64;109476;1233;97928;-93
2023/08/03 12:55:56;;;;;;;5.70;2.90;;;;;;;19.12;65.72;98404.08;109246;1233;97921;-92
2023/08/03 12:59:04;;;;;;;6.40;2.90;;;;;;;19.15;65.90;98402.22;109448;1233;98847;-93
2023/08/03 13:01:34;;;;;;;6.60;2.60;;;;;;;19.20;66.01;98398.44;109382;1234;97941;-92
2023/08/03 13:04:08;;;;;;;7.00;3.10;;;;;;;19.26;66.01;98399.93;109350;1238;107859;-91
2023/08/03 13:06:36;;;;;;;6.50;2.60;;;;;;;19.32;66.07;98397.07;109274;1233;97023;-91
2023/08/03 13:09:49;;;;;;;4.40;2.70;;;;;;;19.38;66.35;98395.92;109348;1238;98018;-91
2023/08/03 13:12:16;;;;;;;5.70;3.20;;;;;;;19.42;66.28;98400.30;109435;1238;99183;-91
2023/08/03 13:14:46;;;;;;;5.50;2.90;;;;;;;19.45;66.30;98405.11;109304;1233;98297;-91
2023/08/03 13:17:52;;;;;;;8.80;3.40;;;;;;;19.45;66.33;98405.73;109554;1233;107647;-92
2023/08/03 13:21:05;;;;;;;6.30;3.00;;;;;;;19.46;66.50;98401.94;109497;1238;98081;-91
2023/08/03 13:23:34;;;;;;;7.50;3.00;;;;;;;19.46;66.41;98393.52;109518;1237;97916;-91
2023/08/03 13:26:32;;;;;;;8.20;3.10;;;;;;;19.41;66.38;98388.77;109450;1233;97731;-90
2023/08/03 13:29:04;;;;;;;8.50;3.00;;;;;;;19.40;66.70;98363.23;110162;1235;97817;-91
2023/08/03 13:31:32;;;;;;;6.80;2.90;;;;;;;19.42;66.63;98355.33;109599;1233;107188;-91
2023/08/03 13:34:00;;;;;;;6.20;2.30;;;;;;;19.46;66.68;98357.05;109317;1235;97895;-90
2023/08/03 13:36:27;;;;;;;5.10;2.60;;;;;;;19.46;66.83;98341.89;109356;1235;97995;-91
2023/08/03 13:38:55;;;;;;;5.00;2.80;;;;;;;19.48;66.81;98330.92;109357;1233;98023;-91
2023/08/03 13:41:23;;;;;;;7.90;3.10;;;;;;;19.49;66.89;98319.52;109407;1235;97875;-91
2023/08/03 13:43:50;;;;;;;5.50;2.70;;;;;;;19.46;66.87;98312.88;109393;1233;106116;-90
2023/08/03 13:46:17;;;;;;;4.80;2.90;;;;;;;19.41;66.91;98310.58;109287;1235;97944;-89
2023/08/03 13:48:47;;;;;;;6.00;2.80;;;;;;;19.40;66.93;98322.92;109429;1233;97992;-91
2023/08/03 13:51:13;;;;;;;5.30;2.70;;;;;;;19.38;66.99;98322.20;109155;1239;111217;-90
2023/08/03 13:53:43;;;;;;;5.40;2.70;;;;;;;19.39;67.07;98317.52;109247;1233;98033;-91
2023/08/03 13:56:10;;;;;;;7.50;3.00;;;;;;;19.36;67.26;98311.52;109177;1238;107494;-91
2023/08/03 13:58:37;;;;;;;6.30;3.00;;;;;;;19.33;67.22;98301.48;108970;1239;97912;-91
2023/08/03 14:01:07;;;;;;;6.60;3.30;;;;;;;19.30;67.28;98322.47;111487;1233;95518;-92
2023/08/03 14:03:37;;;;;;;5.10;2.60;;;;;;;19.28;67.24;98337.42;111417;1233;111095;-90
2023/08/03 14:06:04;;;;;;;7.60;3.50;;;;;;;19.30;67.47;98335.89;111623;1233;95595;-90
2023/08/03 14:08:34;;;;;;;8.70;3.10;;;;;;;19.37;67.62;98333.35;111515;1233;107510;-91
2023/08/03 14:11:25;;;;;;;4.90;2.60;;;;;;;19.39;67.55;98319.48;111462;1233;95694;-91
2023/08/03 14:13:53;;;;;;;4.50;2.50;;;;;;;19.39;67.61;98299.81;111483;1233;95502;-91
2023/08/03 14:16:23;;;;;;;7.50;3.00;;;;;;;19.41;67.77;98293.86;111479;1237;111059;-91
2023/08/03 17:01:07;;;;;;;7.20;3.50;;;;;;;19.68;70.54;98254.94;109289;1256;108142;-90
2023/08/03 17:12:28;;;;;;;7.40;3.20;;;;;;;19.56;70.69;98280.90;109325;1239;94384;-90
2023/08/03 17:14:57;;;;;;;7.60;3.10;;;;;;;19.55;70.75;98279.36;109173;1238;108520;-90
2023/08/03 17:17:26;;;;;;;5.40;3.00;;;;;;;19.55;70.73;98277.11;108932;1240;95106;-91
2023/08/03 17:19:53;;;;;;;5.40;2.80;;;;;;;19.53;70.75;98290.41;108572;1244;107473;-92
2023/08/03 17:22:20;;;;;;;4.00;2.80;;;;;;;19.51;70.71;98298.26;108812;1237;96140;-91
2023/08/03 17:24:52;;;;;;;6.20;2.90;;;;;;;19.48;70.75;98286.90;108882;1241;96138;-90
2023/08/03 17:27:20;;;;;;;7.20;3.10;;;;;;;19.46;70.80;98291.65;109324;1230;108686;-91
2023/08/03 17:30:32;;;;;;;6.50;3.20;;;;;;;19.43;70.84;98295.60;109054;1230;95237;-92
2023/08/03 17:33:05;;;;;;;7.20;3.00;;;;;;;19.41;70.93;98292.40;109333;1230;107516;-91
2023/08/03 17:35:37;;;;;;;8.10;3.30;;;;;;;19.41;70.95;98296.14;109108;1245;95239;-91
2023/08/03 17:38:04;;;;;;;5.70;2.80;;;;;;;19.42;71.04;98292.09;109154;1236;95221;-91
2023/08/03 17:40:34;;;;;;;6.60;3.20;;;;;;;19.41;70.97;98276.44;109306;1235;108463;-91
2023/08/03 17:43:05;;;;;;;7.00;2.70;;;;;;;19.39;71.02;98275.04;109444;1230;95261;-91
2023/08/03 17:45:38;;;;;;;6.70;3.10;;;;;;;19.36;70.96;98285.42;109512;1232;106971;-91
2023/08/03 17:48:05;;;;;;;8.20;3.30;;;;;;;19.33;70.92;98295.02;109553;1232;96145;-91
2023/08/03 17:51:09;;;;;;;6.50;3.20;;;;;;;19.32;71.02;98278.54;109678;1230;95202;-89
2023/08/03 17:53:39;;;;;;;8.30;3.30;;;;;;;19.29;70.99;98288.15;109662;1230;108422;-90
2023/08/03 17:56:10;;;;;;;7.50;3.50;;;;;;;19.25;71.04;98277.11;109329;1231;95260;-89
2023/08/03 17:58:52;;;;;;;8.10;3.50;;;;;;;19.25;71.07;98284.61;109275;1230;107033;-90
2023/08/03 18:09:25;;;;;;;10.00;3.40;;;;;;;19.07;71.20;98300.05;109226;1238;108509;-91
2023/08/03 18:12:15;;;;;;;8.50;3.40;;;;;;;19.09;71.23;98312.30;109318;1230;94994;-91
2023/08/03 18:14:42;;;;;;;6.30;3.00;;;;;;;19.07;71.16;98325.09;109337;1230;106674;-90
2023/08/03 18:17:09;;;;;;;6.70;3.20;;;;;;;19.06;71.18;98328.85;109393;1230;95201;-92
2023/08/03 18:19:36;;;;;;;5.50;3.00;;;;;;;19.08;71.21;98333.27;109526;1230;95171;-91
2023/08/03 18:22:09;;;;;;;11.00;3.80;;;;;;;19.09;71.20;98324.66;109407;1231;95243;-90
2023/08/03 18:24:36;;;;;;;7.90;3.20;;;;;;;19.09;71.26;98326.98;109394;1235;94965;-90
2023/08/03 18:27:03;;;;;;;10.60;3.60;;;;;;;19.08;71.20;98316.19;109265;1235;106608;-90
